Terminal Aerodrome Forecast
Issued by NWS Lake Charles, LA

Home | Current Version | Previous Version | Text Only | Print | Product List | Glossary On
Versions: 1 2 3 4 5 6 7 8 9 10 11 12 13 14 15 16 17
905
FTUS44 KLCH 182335
TAFARA
TAF
KARA 182335Z 1900/1924 18010KT P6SM VCSH BKN012 BKN018 BKN030
     FM190300 17005KT 4SM BR VCSH OVC007
     FM190700 17004KT 2SM BR VCSH OVC004
     FM191400 18004KT 2SM -SHRA VCTS OVC005CB
     FM191800 21008KT 5SM -SHRA VCTS OVC007CB=

USA.gov is the U.S. government's official web portal to all federal, state and local government web resources and services.